Time;durP1;ratioP1;P1;durP2;ratioP2;P2;SDS_P1;SDS_P2;PMS_P1;PMS_P2;Temp;Humidity;BMP_temperature;BMP_pressure;BME280_temperature;BME280_humidity;BME280_pressure;Samples;Min_cycle;Max_cycle;Signal;HPM_P1;HPM_P2
2020/12/04 00:01:12;;;;;;;2.42;0.47;;;14.70;80.10;;;;;;4229539;28;20047;-40
2020/12/04 00:03:33;;;;;;;0.20;0.20;;;14.70;80.30;;;;;;4231582;28;20562;-40
2020/12/04 00:05:55;;;;;;;0.43;0.43;;;14.60;80.20;;;;;;4232019;28;20048;-40
2020/12/04 00:08:17;;;;;;;0.13;0.13;;;14.60;80.10;;;;;;4231074;28;20075;-40
2020/12/04 00:10:38;;;;;;;0.00;0.00;;;14.60;80.10;;;;;;4231819;28;20052;-40
2020/12/04 00:13:00;;;;;;;0.35;0.35;;;14.60;80.00;;;;;;4231598;28;20051;-40
2020/12/04 00:15:23;;;;;;;0.45;0.45;;;14.60;80.00;;;;;;4231447;28;20047;-40
2020/12/04 00:17:45;;;;;;;0.28;0.28;;;14.60;80.10;;;;;;4231768;28;20062;-40
2020/12/04 00:20:06;;;;;;;0.00;0.00;;;14.50;80.20;;;;;;4231433;28;20498;-40
2020/12/04 00:22:28;;;;;;;0.15;0.15;;;14.60;80.20;;;;;;4231498;28;20055;-40
2020/12/04 00:24:49;;;;;;;0.10;0.10;;;14.50;80.10;;;;;;4231262;28;20087;-40
2020/12/04 00:27:11;;;;;;;;;;;14.50;80.00;;;;;;4231851;28;20730;-40
2020/12/04 00:29:32;;;;;;;2.92;0.52;;;14.50;80.00;;;;;;4231367;28;20274;-40
2020/12/04 00:31:56;;;;;;;0.03;0.03;;;14.50;80.00;;;;;;4231045;28;20083;-40
2020/12/04 00:34:20;;;;;;;0.00;0.00;;;14.50;80.00;;;;;;4231131;28;20050;-40
2020/12/04 00:36:45;;;;;;;0.45;0.45;;;14.40;79.90;;;;;;4231164;28;20044;-40
2020/12/04 00:39:06;;;;;;;0.00;0.00;;;14.40;79.90;;;;;;4243536;27;20103;-40
2020/12/04 00:41:28;;;;;;;1.25;0.82;;;14.40;79.90;;;;;;4230848;28;20070;-40
2020/12/04 00:43:50;;;;;;;0.10;0.10;;;14.40;79.90;;;;;;4231337;28;20051;-40
2020/12/04 00:46:17;;;;;;;0.20;0.20;;;14.40;79.90;;;;;;4231005;28;20067;-39
2020/12/04 00:48:38;;;;;;;0.60;0.60;;;14.40;79.90;;;;;;4215792;28;20105;-39
2020/12/04 00:51:01;;;;;;;0.90;0.50;;;14.30;79.80;;;;;;4215607;28;20122;-40
2020/12/04 00:53:23;;;;;;;0.30;0.30;;;14.30;80.00;;;;;;4200843;28;20114;-39
2020/12/04 00:55:44;;;;;;;;;;;14.30;79.90;;;;;;4216026;28;20075;-40
2020/12/04 00:58:06;;;;;;;0.17;0.17;;;14.30;79.70;;;;;;4215422;28;20011;-40
2020/12/04 01:00:31;;;;;;;0.45;0.45;;;14.30;79.80;;;;;;4215436;28;20044;-40
2020/12/04 01:02:56;;;;;;;0.40;0.40;;;14.30;79.80;;;;;;4230640;28;20154;-40
2020/12/04 01:05:18;;;;;;;0.47;0.47;;;14.30;80.00;;;;;;4230616;28;20047;-40
2020/12/04 01:07:40;;;;;;;0.47;0.43;;;14.20;80.10;;;;;;4230143;28;20047;-40
2020/12/04 01:10:03;;;;;;;1.02;1.02;;;14.20;80.00;;;;;;4230921;28;20059;-40
2020/12/04 01:12:25;;;;;;;0.13;0.13;;;14.20;79.90;;;;;;4229921;28;20055;-40
2020/12/04 01:14:47;;;;;;;0.00;0.00;;;14.20;79.80;;;;;;4230670;28;20134;-40
2020/12/04 01:17:08;;;;;;;0.28;0.28;;;14.40;79.00;;;;;;4215249;28;20051;-40
2020/12/04 01:19:29;;;;;;;0.00;0.00;;;14.60;78.10;;;;;;4230693;28;20051;-40
2020/12/04 01:21:53;;;;;;;0.10;0.10;;;14.70;77.00;;;;;;4230242;28;20454;-40
2020/12/04 01:24:18;;;;;;;0.80;0.80;;;14.80;76.50;;;;;;4230209;28;20062;-40
2020/12/04 01:26:40;;;;;;;0.45;0.30;;;14.80;75.90;;;;;;4230672;28;20047;-40
2020/12/04 01:29:04;;;;;;;0.90;0.90;;;14.90;75.80;;;;;;4230347;28;20529;-40
2020/12/04 01:31:26;;;;;;;0.20;0.20;;;14.90;75.80;;;;;;4230049;28;20070;-40
2020/12/04 01:33:47;;;;;;;0.32;0.32;;;14.90;75.60;;;;;;4230474;28;20112;-40
2020/12/04 01:36:10;;;;;;;0.85;0.57;;;14.90;75.10;;;;;;4230180;28;20122;-40
2020/12/04 01:38:31;;;;;;;0.65;0.65;;;14.90;74.90;;;;;;4213507;28;20055;-40
2020/12/04 01:40:59;;;;;;;0.00;0.00;;;14.90;74.90;;;;;;4218623;28;20053;-40
2020/12/04 01:43:20;;;;;;;0.47;0.47;;;14.90;75.10;;;;;;4230250;28;20497;-40
2020/12/04 01:45:42;;;;;;;0.30;0.30;;;14.90;74.90;;;;;;4229965;28;20047;-40
2020/12/04 01:48:04;;;;;;;0.00;0.00;;;14.80;74.80;;;;;;4230146;28;20134;-40
2020/12/04 01:50:25;;;;;;;0.00;0.00;;;14.80;75.00;;;;;;4229677;28;20048;-40
2020/12/04 01:52:49;;;;;;;0.25;0.25;;;14.80;74.90;;;;;;4229842;28;20056;-40
2020/12/04 01:55:10;;;;;;;0.17;0.17;;;14.80;74.60;;;;;;4230009;28;20054;-40
2020/12/04 01:57:34;;;;;;;0.30;0.30;;;14.90;74.40;;;;;;4230026;28;20075;-40
2020/12/04 01:59:55;;;;;;;0.05;0.05;;;14.90;74.00;;;;;;4229955;28;20054;-40
2020/12/04 02:02:21;;;;;;;1.25;1.23;;;15.00;74.00;;;;;;4229235;28;20505;-40
2020/12/04 02:04:41;;;;;;;0.90;0.90;;;15.00;73.90;;;;;;4229609;28;20062;-41
2020/12/04 02:07:07;;;;;;;0.00;0.00;;;15.00;73.70;;;;;;4229602;28;20047;-40
2020/12/04 02:09:34;;;;;;;0.10;0.10;;;15.00;73.60;;;;;;4229711;28;20071;-40
2020/12/04 02:11:56;;;;;;;0.10;0.10;;;15.00;73.40;;;;;;4229480;28;20555;-40
2020/12/04 02:14:19;;;;;;;0.38;0.30;;;15.00;73.10;;;;;;4229530;28;20055;-40
2020/12/04 02:16:44;;;;;;;0.20;0.20;;;15.00;73.10;;;;;;4229546;28;20108;-40
2020/12/04 02:19:07;;;;;;;1.85;1.13;;;14.90;73.30;;;;;;4229781;28;20079;-40
2020/12/04 02:21:29;;;;;;;0.00;0.00;;;14.90;73.40;;;;;;4229114;28;20092;-40
2020/12/04 02:23:51;;;;;;;0.43;0.43;;;14.90;73.40;;;;;;4229288;28;20047;-40
2020/12/04 02:26:14;;;;;;;0.43;0.43;;;14.90;72.90;;;;;;4229610;28;20420;-40
2020/12/04 02:28:38;;;;;;;0.35;0.35;;;14.90;73.10;;;;;;4229555;28;20075;-40
2020/12/04 02:31:00;;;;;;;0.00;0.00;;;14.90;72.80;;;;;;4229121;28;20044;-40
2020/12/04 02:33:20;;;;;;;0.85;0.85;;;14.90;72.60;;;;;;4229276;28;20063;-40
2020/12/04 02:35:41;;;;;;;0.10;0.10;;;14.90;72.50;;;;;;4229523;28;20043;-40
2020/12/04 02:38:04;;;;;;;0.00;0.00;;;15.00;72.20;;;;;;4212660;28;20518;-40
2020/12/04 02:40:28;;;;;;;0.03;0.03;;;15.10;72.00;;;;;;4212538;28;20090;-40
2020/12/04 02:42:49;;;;;;;0.10;0.10;;;15.20;71.20;;;;;;4212459;28;20410;-40
2020/12/04 02:45:12;;;;;;;0.30;0.30;;;15.20;70.30;;;;;;4219710;28;20410;-40
2020/12/04 02:47:33;;;;;;;0.00;0.00;;;15.20;70.20;;;;;;4229424;28;20134;-40
2020/12/04 02:49:54;;;;;;;0.47;0.47;;;15.20;70.60;;;;;;4228993;28;20055;-40
2020/12/04 02:52:18;;;;;;;0.10;0.10;;;15.20;70.90;;;;;;4229135;28;20054;-40
2020/12/04 02:54:40;;;;;;;0.00;0.00;;;15.10;70.50;;;;;;4228884;28;20052;-40
2020/12/04 02:57:00;;;;;;;;;;;15.10;70.50;;;;;;4229600;28;20054;-40
2020/12/04 02:59:21;;;;;;;1.35;1.23;;;15.00;70.40;;;;;;4228956;28;20411;-40
2020/12/04 03:01:42;;;;;;;0.10;0.10;;;15.00;71.00;;;;;;4229069;28;20052;-40
2020/12/04 03:04:04;;;;;;;0.15;0.15;;;15.10;70.80;;;;;;4229163;28;20066;-39
2020/12/04 03:06:24;;;;;;;0.00;0.00;;;15.20;70.70;;;;;;4228586;28;20471;-40
2020/12/04 03:08:45;;;;;;;0.00;0.00;;;15.30;70.20;;;;;;4229211;28;20083;-40
2020/12/04 03:11:07;;;;;;;0.10;0.10;;;15.30;69.80;;;;;;4229275;28;20056;-40
2020/12/04 03:13:28;;;;;;;0.10;0.10;;;15.30;69.80;;;;;;4228888;28;20051;-40
2020/12/04 03:15:51;;;;;;;0.17;0.17;;;15.30;70.00;;;;;;4228843;28;20079;-40
2020/12/04 03:18:12;;;;;;;0.00;0.00;;;15.30;69.70;;;;;;4228981;28;20135;-40
2020/12/04 03:20:33;;;;;;;;;;;15.30;69.80;;;;;;4229378;28;20051;-40
2020/12/04 03:22:54;;;;;;;0.05;0.05;;;15.30;69.90;;;;;;4212142;28;19920;-40
2020/12/04 03:25:17;;;;;;;0.30;0.30;;;15.30;70.10;;;;;;4212054;28;20494;-40
2020/12/04 03:27:38;;;;;;;0.82;0.70;;;15.20;69.70;;;;;;4211262;28;20056;-40
2020/12/04 03:29:59;;;;;;;0.68;0.68;;;15.20;69.70;;;;;;4228719;28;20054;-40
2020/12/04 03:32:20;;;;;;;0.28;0.28;;;15.20;69.50;;;;;;4228826;28;20528;-40
2020/12/04 03:34:41;;;;;;;0.00;0.00;;;15.20;69.60;;;;;;4228881;28;20075;-40
2020/12/04 03:37:02;;;;;;;0.47;0.47;;;15.20;69.40;;;;;;4230344;28;20498;-40
2020/12/04 03:39:23;;;;;;;0.10;0.10;;;15.20;69.80;;;;;;4216181;28;20133;-40
2020/12/04 03:41:44;;;;;;;0.00;0.00;;;15.30;69.60;;;;;;4232385;28;20052;-39
2020/12/04 03:44:06;;;;;;;0.28;0.28;;;15.40;68.90;;;;;;4232244;28;20101;-40
2020/12/04 03:46:27;;;;;;;;;;;15.40;68.90;;;;;;4232085;28;20421;-40
2020/12/04 03:48:48;;;;;;;0.08;0.08;;;15.40;68.40;;;;;;4232009;28;20000;-40
2020/12/04 03:51:10;;;;;;;0.55;0.55;;;15.40;68.60;;;;;;4231870;28;20047;-40
2020/12/04 03:53:31;;;;;;;0.17;0.10;;;15.40;68.00;;;;;;4232094;28;20509;-40
2020/12/04 03:55:51;;;;;;;0.10;0.10;;;15.50;68.00;;;;;;4231686;28;20047;-40
2020/12/04 03:58:12;;;;;;;0.15;0.15;;;15.50;68.70;;;;;;4231729;28;20051;-40
2020/12/04 04:00:34;;;;;;;3.13;1.45;;;15.50;67.50;;;;;;4231741;28;20040;-40
2020/12/04 04:02:55;;;;;;;1.27;1.00;;;15.50;67.50;;;;;;4231712;28;20768;-40
2020/12/04 04:05:16;;;;;;;0.00;0.00;;;15.50;67.50;;;;;;4214865;28;20807;-40
2020/12/04 04:07:37;;;;;;;0.00;0.00;;;15.50;67.80;;;;;;4229526;28;20059;-40
2020/12/04 04:09:58;;;;;;;0.03;0.03;;;15.40;67.80;;;;;;4231732;28;20493;-40
2020/12/04 04:12:19;;;;;;;0.22;0.22;;;15.30;68.30;;;;;;4231747;28;20130;-39
2020/12/04 04:14:40;;;;;;;0.00;0.00;;;15.30;68.60;;;;;;4231104;28;20055;-40
2020/12/04 04:17:02;;;;;;;0.00;0.00;;;15.30;68.90;;;;;;4231387;28;20052;-41
2020/12/04 04:19:23;;;;;;;0.00;0.00;;;15.40;68.50;;;;;;4231588;28;20047;-40
2020/12/04 04:21:44;;;;;;;0.00;0.00;;;15.60;67.50;;;;;;4215865;28;20079;-40
2020/12/04 04:24:05;;;;;;;0.35;0.35;;;15.60;67.20;;;;;;4231538;28;20100;-40
2020/12/04 04:26:25;;;;;;;0.50;0.50;;;15.70;66.70;;;;;;4231466;28;20067;-41
2020/12/04 04:28:46;;;;;;;0.70;0.70;;;15.80;66.60;;;;;;4231471;28;20651;-40
2020/12/04 04:31:08;;;;;;;6.75;0.47;;;15.80;66.00;;;;;;4214701;28;20055;-40
2020/12/04 04:33:33;;;;;;;0.30;0.30;;;15.90;65.80;;;;;;4214486;28;20056;-40
2020/12/04 04:35:54;;;;;;;0.35;0.35;;;15.90;65.60;;;;;;4217967;28;20048;-40
2020/12/04 04:38:18;;;;;;;0.20;0.20;;;15.80;65.80;;;;;;4231071;28;20083;-41
2020/12/04 04:40:41;;;;;;;0.45;0.45;;;15.80;65.90;;;;;;4230815;28;20100;-40
2020/12/04 04:43:06;;;;;;;1.17;1.08;;;15.80;66.90;;;;;;4231142;28;20056;-39
2020/12/04 04:45:28;;;;;;;0.00;0.00;;;15.80;66.00;;;;;;4231042;28;20052;-39
2020/12/04 04:47:50;;;;;;;0.20;0.20;;;15.80;66.40;;;;;;4212912;28;20063;-39
2020/12/04 04:50:12;;;;;;;0.00;0.00;;;15.70;66.30;;;;;;4214279;28;20063;-39
2020/12/04 04:52:36;;;;;;;17.63;1.95;;;15.70;66.20;;;;;;4214197;28;20051;-39
2020/12/04 04:55:00;;;;;;;1.08;1.08;;;15.60;66.50;;;;;;4213969;28;20056;-39
2020/12/04 04:57:22;;;;;;;0.22;0.22;;;15.60;66.20;;;;;;4229795;28;20048;-40
2020/12/04 04:59:45;;;;;;;0.35;0.30;;;15.60;66.30;;;;;;4230833;28;20051;-39
2020/12/04 05:02:11;;;;;;;0.00;0.00;;;15.50;66.60;;;;;;4231177;28;20051;-39
2020/12/04 05:04:52;;;;;;;0.00;0.00;;;15.40;66.90;;;;;;4230656;28;20052;-39
2020/12/04 05:07:17;;;;;;;0.10;0.10;;;15.40;66.90;;;;;;4230560;28;20517;-40
2020/12/04 05:09:38;;;;;;;2.63;0.98;;;15.30;67.40;;;;;;4230729;28;20447;-39
2020/12/04 05:12:00;;;;;;;0.05;0.05;;;15.20;67.90;;;;;;4231057;28;20139;-40
2020/12/04 05:14:23;;;;;;;0.00;0.00;;;15.20;68.20;;;;;;4230528;28;20052;-39
2020/12/04 05:16:45;;;;;;;0.75;0.75;;;15.10;68.60;;;;;;4229988;28;20051;-40
2020/12/04 05:19:06;;;;;;;2.40;1.65;;;15.00;68.60;;;;;;4230886;28;20048;-40
2020/12/04 05:21:28;;;;;;;0.00;0.00;;;15.10;69.00;;;;;;4230305;28;20079;-40
2020/12/04 05:23:53;;;;;;;0.15;0.15;;;15.20;68.60;;;;;;4230491;28;20047;-39
2020/12/04 05:26:29;;;;;;;0.43;0.43;;;15.40;67.70;;;;;;4230214;28;20051;-40
2020/12/04 05:28:51;;;;;;;0.15;0.15;;;15.50;67.20;;;;;;4230271;28;20414;-39
2020/12/04 05:31:12;;;;;;;0.10;0.10;;;15.50;66.90;;;;;;4230461;28;20116;-39
2020/12/04 05:33:36;;;;;;;0.00;0.00;;;15.60;67.00;;;;;;4214818;28;20060;-39
2020/12/04 05:35:57;;;;;;;;;;;15.60;66.80;;;;;;4204254;28;20568;-39
2020/12/04 05:38:19;;;;;;;0.00;0.00;;;15.50;67.00;;;;;;4230204;28;19927;-40
2020/12/04 05:40:43;;;;;;;2.00;0.65;;;15.50;67.30;;;;;;4229878;28;20059;-39
2020/12/04 05:43:08;;;;;;;0.00;0.00;;;15.50;67.50;;;;;;4230385;28;20138;-39
2020/12/04 05:45:28;;;;;;;0.43;0.43;;;15.40;68.00;;;;;;4229599;28;20051;-39
2020/12/04 05:47:51;;;;;;;0.15;0.15;;;15.40;68.10;;;;;;4214739;28;20414;-39
2020/12/04 05:50:13;;;;;;;;;;;15.50;68.00;;;;;;4230379;28;20059;-39
2020/12/04 05:52:35;;;;;;;0.20;0.20;;;15.50;67.70;;;;;;4213190;28;19963;-39
2020/12/04 05:55:00;;;;;;;0.00;0.00;;;15.70;67.30;;;;;;4213237;28;20036;-39
2020/12/04 05:57:23;;;;;;;0.10;0.10;;;15.80;66.70;;;;;;4212951;28;20063;-42
2020/12/04 05:59:45;;;;;;;0.10;0.10;;;15.90;66.20;;;;;;4212807;28;20052;-39
2020/12/04 06:02:12;;;;;;;0.55;0.55;;;15.90;65.90;;;;;;4210926;28;20529;-39
2020/12/04 06:04:47;;;;;;;0.00;0.00;;;15.90;65.80;;;;;;4229971;28;20052;-39
2020/12/04 06:07:11;;;;;;;0.10;0.10;;;15.80;66.00;;;;;;4229372;28;20591;-40
2020/12/04 06:09:33;;;;;;;0.10;0.10;;;15.80;66.50;;;;;;4229768;28;20406;-39
2020/12/04 06:11:54;;;;;;;0.80;0.80;;;15.70;66.70;;;;;;4229311;28;20055;-40
2020/12/04 06:14:17;;;;;;;0.30;0.20;;;15.70;67.20;;;;;;4230153;28;20054;-40
2020/12/04 06:16:38;;;;;;;0.30;0.30;;;15.70;67.50;;;;;;4212548;28;20421;-39
2020/12/04 06:19:00;;;;;;;0.10;0.10;;;15.80;67.30;;;;;;4212854;28;20052;-40
2020/12/04 06:21:45;;;;;;;0.75;0.75;;;15.80;67.20;;;;;;4223065;28;20417;-40
2020/12/04 06:24:07;;;;;;;0.65;0.65;;;15.80;67.00;;;;;;4229492;28;20060;-39
2020/12/04 06:26:45;;;;;;;0.32;0.32;;;15.70;67.30;;;;;;4229569;28;20052;-40
2020/12/04 06:29:08;;;;;;;0.20;0.20;;;15.80;67.50;;;;;;4229240;28;20060;-41
2020/12/04 06:31:33;;;;;;;;;;;15.90;67.20;;;;;;4212944;28;20135;-42
2020/12/04 06:33:54;;;;;;;1.45;0.85;;;15.90;67.10;;;;;;4212930;28;19953;-40
2020/12/04 06:36:38;;;;;;;0.08;0.08;;;15.90;67.10;;;;;;4222161;28;20083;-40
2020/12/04 06:39:01;;;;;;;0.50;0.50;;;15.90;67.20;;;;;;4229134;28;20113;-40
2020/12/04 06:41:34;;;;;;;0.10;0.10;;;15.80;67.10;;;;;;4212469;28;20056;-39
2020/12/04 06:43:58;;;;;;;1.45;0.85;;;15.80;66.70;;;;;;4212935;28;20047;-40
2020/12/04 06:46:30;;;;;;;0.70;0.70;;;15.90;66.90;;;;;;4215176;28;20051;-40
2020/12/04 06:49:22;;;;;;;0.08;0.08;;;15.90;66.90;;;;;;4229115;28;20055;-39
2020/12/04 06:52:00;;;;;;;0.20;0.20;;;16.00;66.70;;;;;;4227263;28;20047;-39
2020/12/04 06:54:21;;;;;;;0.10;0.10;;;16.10;65.80;;;;;;4229047;28;20119;-40
2020/12/04 06:56:42;;;;;;;1.55;0.77;;;16.20;65.60;;;;;;4229088;28;20043;-40
2020/12/04 06:59:03;;;;;;;1.00;1.00;;;16.30;65.20;;;;;;4229180;28;20055;-39
2020/12/04 07:01:24;;;;;;;0.00;0.00;;;16.30;65.00;;;;;;4212295;28;20134;-39
2020/12/04 07:03:58;;;;;;;0.32;0.32;;;16.20;65.20;;;;;;4212225;28;20066;-40
2020/12/04 07:06:22;;;;;;;0.20;0.20;;;16.20;65.90;;;;;;4223282;28;20752;-40
2020/12/04 07:08:58;;;;;;;0.00;0.00;;;16.20;67.20;;;;;;4228720;28;20700;-39
2020/12/04 07:11:18;;;;;;;0.08;0.08;;;16.20;66.90;;;;;;4230325;28;20060;-39
2020/12/04 07:13:45;;;;;;;0.03;0.03;;;16.10;67.50;;;;;;4215898;28;20050;-40
2020/12/04 07:16:06;;;;;;;0.00;0.00;;;16.10;67.60;;;;;;4231135;28;20138;-40
2020/12/04 07:18:30;;;;;;;0.00;0.00;;;16.00;67.50;;;;;;4232702;28;20059;-39
2020/12/04 07:20:52;;;;;;;0.45;0.45;;;15.80;68.00;;;;;;4232648;28;20044;-40
2020/12/04 07:23:12;;;;;;;1.40;1.30;;;15.80;68.70;;;;;;4232738;28;20048;-40
2020/12/04 07:25:33;;;;;;;0.40;0.40;;;15.70;68.70;;;;;;4227519;28;20138;-40
2020/12/04 07:27:55;;;;;;;0.00;0.00;;;15.80;68.80;;;;;;4232765;28;20058;-40
2020/12/04 07:30:16;;;;;;;;;;;15.80;68.00;;;;;;4232901;28;20417;-41
2020/12/04 07:32:50;;;;;;;0.10;0.10;;;15.80;67.60;;;;;;4231587;28;20320;-40
2020/12/04 07:35:11;;;;;;;0.00;0.00;;;15.80;67.50;;;;;;4217854;28;20052;-41
2020/12/04 07:37:33;;;;;;;0.00;0.00;;;15.80;67.80;;;;;;4232303;27;20055;-41
2020/12/04 07:39:53;;;;;;;0.00;0.00;;;15.70;68.90;;;;;;4223992;28;20040;-45
2020/12/04 07:42:15;;;;;;;0.15;0.15;;;15.70;68.20;;;;;;4232586;28;20387;-41
2020/12/04 07:44:37;;;;;;;0.57;0.57;;;15.80;68.10;;;;;;4232347;28;20122;-41
2020/12/04 07:47:03;;;;;;;0.00;0.00;;;15.90;67.30;;;;;;4231864;28;20058;-40
2020/12/04 07:49:24;;;;;;;0.28;0.28;;;16.00;66.10;;;;;;4215910;28;20048;-41
2020/12/04 07:51:45;;;;;;;;;;;16.10;65.90;;;;;;4232202;28;20130;-41
2020/12/04 07:54:19;;;;;;;0.00;0.00;;;16.00;65.50;;;;;;4231857;28;19923;-40
2020/12/04 07:56:47;;;;;;;0.00;0.00;;;16.00;65.60;;;;;;4216248;28;20294;-39
2020/12/04 07:59:11;;;;;;;23.58;2.20;;;15.90;66.10;;;;;;4231469;28;20123;-39
2020/12/04 08:01:41;;;;;;;0.00;0.00;;;15.80;66.10;;;;;;4231514;28;20052;-40
2020/12/04 08:04:02;;;;;;;0.45;0.45;;;15.70;65.90;;;;;;4231463;28;20085;-40
2020/12/04 08:06:27;;;;;;;0.85;0.85;;;15.60;66.50;;;;;;4231571;28;20501;-41
2020/12/04 08:08:48;;;;;;;0.15;0.15;;;15.40;66.70;;;;;;4232128;28;20051;-40
2020/12/04 08:11:13;;;;;;;0.20;0.20;;;15.30;67.10;;;;;;4231329;28;20050;-40
2020/12/04 08:13:36;;;;;;;0.75;0.75;;;15.20;68.20;;;;;;4230205;28;20047;-40
2020/12/04 08:15:56;;;;;;;2.85;0.75;;;15.20;67.80;;;;;;4231201;28;20717;-40
2020/12/04 08:18:20;;;;;;;0.30;0.30;;;15.10;67.70;;;;;;4231854;28;20517;-40
2020/12/04 08:20:40;;;;;;;0.32;0.32;;;15.10;67.50;;;;;;4231271;28;20048;-41
2020/12/04 08:23:02;;;;;;;30.73;1.52;;;15.00;67.90;;;;;;4214407;28;20461;-42
2020/12/04 08:25:24;;;;;;;0.03;0.03;;;14.90;68.10;;;;;;4231404;28;20410;-42
2020/12/04 08:27:46;;;;;;;0.00;0.00;;;14.90;68.80;;;;;;4231394;28;20104;-42
2020/12/04 08:30:15;;;;;;;0.20;0.20;;;14.90;69.30;;;;;;4230605;28;20055;-40
2020/12/04 08:32:38;;;;;;;0.00;0.00;;;15.00;68.90;;;;;;4230892;28;20135;-41
2020/12/04 08:35:11;;;;;;;0.20;0.20;;;15.10;68.50;;;;;;4230899;28;20485;-39
2020/12/04 08:37:32;;;;;;;1.27;0.63;;;15.20;67.70;;;;;;4231187;28;20062;-40
2020/12/04 08:39:53;;;;;;;0.43;0.43;;;15.20;67.60;;;;;;4230905;28;20126;-40
2020/12/04 08:42:23;;;;;;;0.30;0.30;;;15.20;67.50;;;;;;4225900;28;20579;-40
2020/12/04 08:45:04;;;;;;;0.28;0.28;;;15.20;68.00;;;;;;4231175;28;20157;-41
2020/12/04 08:47:36;;;;;;;0.00;0.00;;;15.30;68.10;;;;;;4230825;28;20056;-40
2020/12/04 08:49:57;;;;;;;;;;;15.30;68.20;;;;;;4231072;28;20052;-40
2020/12/04 08:52:40;;;;;;;0.10;0.10;;;15.30;67.50;;;;;;4230856;28;19924;-39
2020/12/04 08:55:06;;;;;;;0.00;0.00;;;15.30;67.50;;;;;;4230216;28;20044;-40
2020/12/04 08:57:28;;;;;;;0.28;0.28;;;15.30;68.00;;;;;;4230911;28;20478;-40
2020/12/04 08:59:49;;;;;;;0.17;0.17;;;15.30;68.00;;;;;;4230881;28;20147;-40
2020/12/04 09:02:10;;;;;;;0.20;0.20;;;15.30;68.10;;;;;;4225491;28;20079;-39
2020/12/04 09:04:31;;;;;;;0.00;0.00;;;15.30;68.00;;;;;;4230758;28;20052;-40
2020/12/04 09:06:52;;;;;;;0.00;0.00;;;15.20;67.70;;;;;;4213714;28;20056;-40
2020/12/04 09:09:13;;;;;;;8.83;4.10;;;15.20;68.00;;;;;;4218980;28;20420;-40
2020/12/04 09:11:33;;;;;;;0.10;0.10;;;15.20;67.80;;;;;;4229361;28;20362;-40
2020/12/04 09:13:54;;;;;;;0.22;0.22;;;15.20;68.10;;;;;;4229899;28;20129;-40
2020/12/04 09:16:17;;;;;;;0.00;0.00;;;15.10;68.10;;;;;;4230856;28;20452;-40
2020/12/04 09:18:38;;;;;;;0.00;0.00;;;15.10;67.60;;;;;;4230716;28;20526;-40
2020/12/04 09:20:59;;;;;;;0.00;0.00;;;15.10;68.20;;;;;;4230180;28;20505;-40
2020/12/04 09:23:20;;;;;;;0.00;0.00;;;15.30;67.70;;;;;;4216291;28;20051;-40
2020/12/04 09:25:41;;;;;;;0.03;0.03;;;15.40;66.80;;;;;;4230734;28;20043;-40
2020/12/04 09:28:09;;;;;;;0.75;0.75;;;15.40;66.90;;;;;;4223480;28;20120;-40
2020/12/04 09:30:30;;;;;;;0.55;0.55;;;15.50;67.10;;;;;;4230350;28;20051;-40
2020/12/04 09:32:52;;;;;;;0.30;0.30;;;15.40;66.70;;;;;;4229798;28;20059;-40
2020/12/04 09:35:15;;;;;;;0.15;0.15;;;15.40;66.80;;;;;;4228312;28;20508;-40
2020/12/04 09:37:37;;;;;;;0.00;0.00;;;15.30;67.10;;;;;;4214384;28;20052;-39
2020/12/04 09:40:01;;;;;;;0.00;0.00;;;15.20;67.70;;;;;;4225676;28;20590;-40
2020/12/04 09:42:23;;;;;;;0.10;0.10;;;15.20;67.90;;;;;;4216139;28;20135;-40
2020/12/04 09:44:45;;;;;;;0.20;0.20;;;15.10;67.90;;;;;;4219329;28;20102;-40
2020/12/04 09:47:06;;;;;;;2.17;0.73;;;15.00;68.30;;;;;;4229404;28;20131;-40
2020/12/04 09:49:28;;;;;;;0.10;0.10;;;15.00;68.80;;;;;;4229876;28;20044;-40
2020/12/04 09:51:50;;;;;;;0.00;0.00;;;14.90;69.40;;;;;;4229271;28;20056;-39
2020/12/04 09:54:11;;;;;;;;;;;14.90;69.60;;;;;;4230254;28;20150;-40
2020/12/04 09:56:32;;;;;;;0.10;0.10;;;14.80;69.60;;;;;;4229965;28;19930;-40
2020/12/04 09:58:53;;;;;;;0.00;0.00;;;14.90;69.10;;;;;;4229646;28;20056;-40
2020/12/04 10:01:14;;;;;;;0.00;0.00;;;14.90;69.20;;;;;;4228614;28;20048;-39
2020/12/04 10:03:36;;;;;;;0.00;0.00;;;15.00;69.30;;;;;;4229811;28;20131;-40
2020/12/04 10:05:58;;;;;;;0.00;0.00;;;15.00;69.50;;;;;;4229609;28;20093;-39
2020/12/04 10:08:22;;;;;;;0.00;0.00;;;15.10;69.30;;;;;;4229911;27;20560;-39
2020/12/04 10:10:43;;;;;;;3.13;0.63;;;15.30;68.60;;;;;;4229443;28;20048;-40
2020/12/04 10:13:04;;;;;;;0.10;0.10;;;15.40;67.70;;;;;;4224464;28;20108;-40
2020/12/04 10:15:27;;;;;;;0.00;0.00;;;15.60;67.40;;;;;;4229514;28;20332;-39
2020/12/04 10:17:48;;;;;;;0.00;0.00;;;15.60;67.90;;;;;;4229499;28;20782;-40
2020/12/04 10:20:09;;;;;;;0.00;0.00;;;15.60;67.10;;;;;;4229392;28;20135;-40
2020/12/04 10:22:31;;;;;;;0.00;0.00;;;15.50;66.80;;;;;;4229978;28;20057;-40
2020/12/04 10:24:52;;;;;;;0.00;0.00;;;15.40;66.90;;;;;;4229015;28;20410;-41
2020/12/04 10:27:13;;;;;;;0.10;0.10;;;15.30;67.30;;;;;;4229705;28;20051;-44
2020/12/04 10:29:34;;;;;;;0.10;0.10;;;15.20;67.90;;;;;;4228941;28;20118;-40
2020/12/04 10:31:55;;;;;;;0.00;0.00;;;15.20;68.40;;;;;;4224057;28;20071;-39
2020/12/04 10:34:16;;;;;;;0.00;0.00;;;15.10;68.50;;;;;;4229742;28;20490;-39
2020/12/04 10:36:37;;;;;;;;;;;15.00;69.00;;;;;;4229779;28;20047;-40
2020/12/04 10:39:00;;;;;;;0.00;0.00;;;15.00;69.30;;;;;;4229173;28;20602;-40
2020/12/04 10:41:22;;;;;;;0.10;0.10;;;14.90;69.60;;;;;;4229074;28;20059;-40
2020/12/04 10:43:43;;;;;;;0.00;0.00;;;14.90;70.00;;;;;;4221238;28;20052;-39
2020/12/04 10:46:04;;;;;;;0.00;0.00;;;15.00;70.00;;;;;;4225319;28;20520;-40
2020/12/04 10:48:25;;;;;;;0.10;0.10;;;15.00;69.70;;;;;;4224049;28;20043;-40
2020/12/04 10:50:48;;;;;;;0.00;0.00;;;15.00;69.70;;;;;;4227682;28;20048;-39
2020/12/04 10:53:09;;;;;;;0.25;0.25;;;15.00;69.80;;;;;;4227630;28;20055;-40
2020/12/04 10:55:31;;;;;;;0.08;0.08;;;15.00;69.90;;;;;;4225305;28;20040;-40
2020/12/04 10:57:52;;;;;;;0.10;0.10;;;15.00;70.10;;;;;;4227988;28;20043;-39
2020/12/04 11:00:13;;;;;;;1.25;1.25;;;14.90;70.30;;;;;;4226373;28;20494;-39
2020/12/04 11:02:37;;;;;;;0.00;0.00;;;14.90;70.50;;;;;;4225410;28;20051;-40
2020/12/04 11:07:37;;;;;;;0.00;0.00;;;15.00;69.80;;;;;;4226763;28;20051;-40
2020/12/04 11:09:58;;;;;;;0.10;0.10;;;15.20;69.40;;;;;;4224509;28;20574;-39
2020/12/04 11:12:20;;;;;;;1.90;1.80;;;15.30;68.70;;;;;;4228335;28;20058;-39
2020/12/04 11:14:43;;;;;;;0.28;0.28;;;15.40;68.60;;;;;;4225218;28;20494;-40
2020/12/04 11:17:04;;;;;;;0.55;0.55;;;15.40;68.60;;;;;;4224917;28;20087;-39
2020/12/04 11:19:25;;;;;;;5.72;1.17;;;15.40;68.40;;;;;;4223717;28;20048;-39
2020/12/04 11:21:46;;;;;;;0.47;0.47;;;15.30;68.40;;;;;;4226124;28;20635;-39
2020/12/04 11:24:07;;;;;;;0.35;0.30;;;15.30;68.70;;;;;;4212629;28;20051;-40
2020/12/04 11:26:28;;;;;;;;;;;15.20;68.60;;;;;;4224667;28;20598;-40
2020/12/04 11:28:50;;;;;;;3.80;2.17;;;15.20;69.20;;;;;;4226714;28;19977;-39
2020/12/04 11:31:11;;;;;;;1.02;1.02;;;15.20;69.30;;;;;;4227620;28;20062;-40
2020/12/04 11:33:32;;;;;;;0.10;0.10;;;15.10;69.40;;;;;;4226532;28;20056;-40
2020/12/04 11:35:53;;;;;;;1.85;1.75;;;15.00;69.40;;;;;;4227568;28;20133;-40
2020/12/04 11:38:14;;;;;;;1.30;1.30;;;15.00;69.80;;;;;;4210215;28;20044;-40
2020/12/04 11:40:35;;;;;;;1.13;1.13;;;14.90;70.10;;;;;;4226135;28;20129;-40
2020/12/04 11:42:59;;;;;;;1.35;1.35;;;14.90;70.60;;;;;;4224050;28;20468;-40
2020/12/04 11:45:21;;;;;;;;;;;14.80;70.40;;;;;;4227501;28;20128;-40
2020/12/04 11:47:43;;;;;;;0.52;0.52;;;14.80;71.00;;;;;;4225931;28;20403;-40
2020/12/04 11:50:04;;;;;;;;;;;14.80;71.20;;;;;;4226723;28;20047;-40
2020/12/04 11:52:26;;;;;;;0.20;0.20;;;14.80;71.10;;;;;;4211752;28;19924;-40
2020/12/04 11:54:47;;;;;;;1.40;1.40;;;14.80;71.20;;;;;;4227607;28;20472;-40
2020/12/04 11:57:09;;;;;;;2.10;2.00;;;14.80;71.20;;;;;;4225274;28;20131;-40
2020/12/04 11:59:30;;;;;;;0.28;0.28;;;14.80;70.90;;;;;;4227100;28;20043;-40
2020/12/04 12:01:52;;;;;;;0.63;0.63;;;14.80;71.00;;;;;;4230469;28;20683;-39
2020/12/04 12:04:15;;;;;;;0.82;0.82;;;14.80;70.70;;;;;;4229341;28;20105;-40
2020/12/04 12:06:36;;;;;;;0.57;0.57;;;14.80;70.40;;;;;;4227935;28;20055;-40
2020/12/04 12:08:57;;;;;;;1.52;1.42;;;14.80;70.30;;;;;;4230201;28;20058;-40
2020/12/04 12:11:18;;;;;;;0.10;0.10;;;14.90;69.90;;;;;;4230957;28;20054;-40
2020/12/04 12:13:39;;;;;;;1.67;1.60;;;15.00;68.70;;;;;;4229590;28;20055;-40
2020/12/04 12:16:05;;;;;;;3.30;0.70;;;15.20;68.70;;;;;;4230537;28;20443;-42
2020/12/04 12:18:29;;;;;;;3.55;2.42;;;15.30;68.60;;;;;;4226368;28;20058;-41
2020/12/04 12:20:50;;;;;;;0.10;0.10;;;15.30;68.10;;;;;;4229626;28;20128;-43
2020/12/04 12:23:10;;;;;;;0.68;0.68;;;15.20;69.20;;;;;;4229234;28;20112;-41
2020/12/04 12:25:32;;;;;;;0.75;0.75;;;15.20;68.20;;;;;;4226048;28;20110;-40
2020/12/04 12:27:58;;;;;;;1.30;1.20;;;15.10;68.40;;;;;;4226883;28;20058;-40
2020/12/04 12:30:19;;;;;;;0.95;0.70;;;15.10;68.60;;;;;;4229261;28;20078;-40